Cmb Sakura — 3EGO3 — position and weather

sailwx.info

Track history (hours):
 
Tides and Currents Weather Stations Pressure Air Temp Water Temp Dewpoint Dewpoint Depression Visibility Wind Speed Wind Dir Waves Ship Positions

Cmb Sakura

Last reported at 2017-Feb-26 16:32 UTC. Time now 2017-Feb-28 17:20 UTC.
Position N 36°47' E 013°31'.

Length 225 m; draft 6.8 m.

Type: Cargo ship. MMSI: 371784000.

Date/timePositionNaut miles runAvg speedWind from/ knotsBaromVisibWave heightAir tempDewpointWater temp
2017-Feb-26 16:32N 36°47' E 013°31'1413.7
2017-Feb-26 15:33N 36°41' E 013°46'1413.8
2017-Feb-26 14:33N 36°35' E 014°02'1414.3
2017-Feb-26 13:33N 36°29' E 014°18'1414.3
2017-Feb-26 12:33N 36°29' E 014°36'44310.0
2017-Feb-24 16:23N 43°50' E 013°54'1213.5
2017-Feb-24 15:31N 43°58' E 013°41'1313.8
2017-Feb-24 14:33N 44°05' E 013°26'1313.5
2017-Feb-24 13:33N 44°13' E 013°10'1413.6
2017-Feb-24 12:33N 44°20' E 012°54'1414.2
2017-Feb-24 11:33N 44°28' E 012°38'1312.5
2017-Feb-24 10:33N 44°30' E 012°20'3 0.3
2017-Feb-24 00:32N 44°29' E 012°16'0 0.0
2017-Feb-23 23:26N 44°29' E 012°16'0 0.0
2017-Feb-23 22:05N 44°29' E 012°16'0 0.0
2017-Feb-23 21:26N 44°29' E 012°16'0 0.0
2017-Feb-23 20:26N 44°29' E 012°16'0 0.0
2017-Feb-23 19:29N 44°29' E 012°16'0 0.0
2017-Feb-23 18:26N 44°29' E 012°16'0 0.0
2017-Feb-23 17:23N 44°29' E 012°16'0 0.0
2017-Feb-23 16:29N 44°29' E 012°16'0 0.0
2017-Feb-23 15:08N 44°29' E 012°16'0 0.0
2017-Feb-23 13:14N 44°29' E 012°16'0 0.0
2017-Feb-23 12:32N 44°29' E 012°16'0 0.0
2017-Feb-23 04:32N 44°29' E 012°16'0 0.0
2017-Feb-23 01:32N 44°29' E 012°16'0 0.0
2017-Feb-23 00:32N 44°29' E 012°16'0 0.0
2017-Feb-22 23:32N 44°29' E 012°16'0 0.0
2017-Feb-22 22:29N 44°29' E 012°16'0 0.0
2017-Feb-22 21:20N 44°29' E 012°16'0 0.0
2017-Feb-22 20:29N 44°29' E 012°16'0 0.0
2017-Feb-22 19:26N 44°29' E 012°16'0 0.0
2017-Feb-22 18:32N 44°29' E 012°16'0 0.0
2017-Feb-22 16:23N 44°29' E 012°16'0 0.0
2017-Feb-22 14:32N 44°29' E 012°16'0 0.0
2017-Feb-22 13:23N 44°29' E 012°16'0 0.0
2017-Feb-22 12:29N 44°29' E 012°16'0 0.0
2017-Feb-22 11:26N 44°29' E 012°16'0 0.0
2017-Feb-22 10:32N 44°29' E 012°16'0 0.0
2017-Feb-21 22:32N 44°29' E 012°16'0 0.0
2017-Feb-21 21:29N 44°29' E 012°16'0 0.0
2017-Feb-21 20:29N 44°29' E 012°16'0 0.0
2017-Feb-21 19:29N 44°29' E 012°16'0 0.0
2017-Feb-21 18:23N 44°29' E 012°16'0 0.0
2017-Feb-21 17:26N 44°29' E 012°16'1 0.7
2017-Feb-21 16:32N 44°28' E 012°15'7 5.2
2017-Feb-21 15:12N 44°30' E 012°25'812.5
2017-Feb-21 14:33N 44°29' E 012°36'1514.3
2017-Feb-21 13:28N 44°24' E 012°56'1614.2
2017-Feb-21 12:22N 44°17' E 013°16'1214.2
2017-Feb-21 11:33N 44°10' E 013°29'1414.3
2017-Feb-21 10:33N 44°02' E 013°45'1414.1
2017-Feb-21 09:33N 43°53' E 014°00'44810.0
2017-Feb-19 12:31N 36°26' E 014°43'1212.9
2017-Feb-19 11:34N 36°28' E 014°28'1413.5
2017-Feb-19 10:33N 36°33' E 014°12'1414.2
2017-Feb-19 09:33N 36°39' E 013°56'1414.3
2017-Feb-19 08:33N 36°44' E 013°40'1814.3
2017-Feb-19 07:20N 36°51' E 013°20'45714.2
2017-Feb-17 23:06N 37°43' E 003°49'5914.6
2017-Feb-17 19:05N 37°39' E 002°35'13313.6
2017-Feb-17 09:20N 37°31' W 000°13'1013.3
2017-Feb-17 08:33N 37°31' W 000°26'1313.1
2017-Feb-17 07:33N 37°29' W 000°42'1312.8
2017-Feb-17 06:33N 37°29' W 000°58'  
Track history (hours):
 
Tides and Currents Weather Stations Pressure Air Temp Water Temp Dewpoint Dewpoint Depression Visibility Wind Speed Wind Dir Waves Ship Positions

Cmb Sakura

Last reported at 2017-Feb-26 16:32 UTC. Time now 2017-Feb-28 17:20 UTC.
Position N 36°47' E 013°31'.

Length 225 m; draft 6.8 m.

Type: Cargo ship. MMSI: 371784000.

Date/timePositionNaut miles runAvg speedWind from/ knotsBaromVisibWave heightAir tempDewpointWater temp
2017-Feb-26 16:32N 36°47' E 013°31'1413.7
2017-Feb-26 15:33N 36°41' E 013°46'1413.8
2017-Feb-26 14:33N 36°35' E 014°02'1414.3
2017-Feb-26 13:33N 36°29' E 014°18'1414.3
2017-Feb-26 12:33N 36°29' E 014°36'44310.0
2017-Feb-24 16:23N 43°50' E 013°54'1213.5
2017-Feb-24 15:31N 43°58' E 013°41'1313.8
2017-Feb-24 14:33N 44°05' E 013°26'1313.5
2017-Feb-24 13:33N 44°13' E 013°10'1413.6
2017-Feb-24 12:33N 44°20' E 012°54'1414.2
2017-Feb-24 11:33N 44°28' E 012°38'1312.5
2017-Feb-24 10:33N 44°30' E 012°20'3 0.3
2017-Feb-24 00:32N 44°29' E 012°16'0 0.0
2017-Feb-23 23:26N 44°29' E 012°16'0 0.0
2017-Feb-23 22:05N 44°29' E 012°16'0 0.0
2017-Feb-23 21:26N 44°29' E 012°16'0 0.0
2017-Feb-23 20:26N 44°29' E 012°16'0 0.0
2017-Feb-23 19:29N 44°29' E 012°16'0 0.0
2017-Feb-23 18:26N 44°29' E 012°16'0 0.0
2017-Feb-23 17:23N 44°29' E 012°16'0 0.0
2017-Feb-23 16:29N 44°29' E 012°16'0 0.0
2017-Feb-23 15:08N 44°29' E 012°16'0 0.0
2017-Feb-23 13:14N 44°29' E 012°16'0 0.0
2017-Feb-23 12:32N 44°29' E 012°16'0 0.0
2017-Feb-23 04:32N 44°29' E 012°16'0 0.0
2017-Feb-23 01:32N 44°29' E 012°16'0 0.0
2017-Feb-23 00:32N 44°29' E 012°16'0 0.0
2017-Feb-22 23:32N 44°29' E 012°16'0 0.0
2017-Feb-22 22:29N 44°29' E 012°16'0 0.0
2017-Feb-22 21:20N 44°29' E 012°16'0 0.0
2017-Feb-22 20:29N 44°29' E 012°16'0 0.0
2017-Feb-22 19:26N 44°29' E 012°16'0 0.0
2017-Feb-22 18:32N 44°29' E 012°16'0 0.0
2017-Feb-22 16:23N 44°29' E 012°16'0 0.0
2017-Feb-22 14:32N 44°29' E 012°16'0 0.0
2017-Feb-22 13:23N 44°29' E 012°16'0 0.0
2017-Feb-22 12:29N 44°29' E 012°16'0 0.0
2017-Feb-22 11:26N 44°29' E 012°16'0 0.0
2017-Feb-22 10:32N 44°29' E 012°16'0 0.0
2017-Feb-21 22:32N 44°29' E 012°16'0 0.0
2017-Feb-21 21:29N 44°29' E 012°16'0 0.0
2017-Feb-21 20:29N 44°29' E 012°16'0 0.0
2017-Feb-21 19:29N 44°29' E 012°16'0 0.0
2017-Feb-21 18:23N 44°29' E 012°16'0 0.0
2017-Feb-21 17:26N 44°29' E 012°16'1 0.7
2017-Feb-21 16:32N 44°28' E 012°15'7 5.2
2017-Feb-21 15:12N 44°30' E 012°25'812.5
2017-Feb-21 14:33N 44°29' E 012°36'1514.3
2017-Feb-21 13:28N 44°24' E 012°56'1614.2
2017-Feb-21 12:22N 44°17' E 013°16'1214.2
2017-Feb-21 11:33N 44°10' E 013°29'1414.3
2017-Feb-21 10:33N 44°02' E 013°45'1414.1
2017-Feb-21 09:33N 43°53' E 014°00'44810.0
2017-Feb-19 12:31N 36°26' E 014°43'1212.9
2017-Feb-19 11:34N 36°28' E 014°28'1413.5
2017-Feb-19 10:33N 36°33' E 014°12'1414.2
2017-Feb-19 09:33N 36°39' E 013°56'1414.3
2017-Feb-19 08:33N 36°44' E 013°40'1814.3
2017-Feb-19 07:20N 36°51' E 013°20'45714.2
2017-Feb-17 23:06N 37°43' E 003°49'5914.6
2017-Feb-17 19:05N 37°39' E 002°35'13313.6
2017-Feb-17 09:20N 37°31' W 000°13'1013.3
2017-Feb-17 08:33N 37°31' W 000°26'1313.1
2017-Feb-17 07:33N 37°29' W 000°42'1312.8
2017-Feb-17 06:33N 37°29' W 000°58'  

Dump ship's entire track history